Time;durP1;ratioP1;P1;durP2;ratioP2;P2;SDS_P1;SDS_P2;PMS_P1;PMS_P2;Temp;Humidity;BMP_temperature;BMP_pressure;BME280_temperature;BME280_humidity;BME280_pressure;Samples;Min_cycle;Max_cycle;Signal;HPM_P1;HPM_P2
2021/04/21 00:00:56;;;;;;;42.95;29.15;;;;;;;10.40;69.22;101246.09;4985233;28;20194;-61
2021/04/21 00:03:24;;;;;;;40.40;27.70;;;;;;;10.34;69.51;101246.09;4983876;28;20058;-64
2021/04/21 00:05:52;;;;;;;41.08;29.60;;;;;;;10.39;69.45;101241.75;4991573;28;20050;-64
2021/04/21 00:08:19;;;;;;;40.08;28.20;;;;;;;10.38;69.19;101245.22;4988459;28;20141;-61
2021/04/21 00:10:48;;;;;;;41.90;29.60;;;;;;;10.42;69.15;101242.59;4971104;28;20497;-64
2021/04/21 00:13:15;;;;;;;42.15;29.27;;;;;;;10.35;69.44;101247.81;4980323;28;20047;-64
2021/04/21 00:15:41;;;;;;;41.90;28.98;;;;;;;10.33;69.37;101247.84;4973163;28;20055;-64
2021/04/21 00:18:09;;;;;;;44.40;30.73;;;;;;;10.32;68.95;101237.47;4971813;28;20389;-64
2021/04/21 00:20:36;;;;;;;44.00;30.17;;;;;;;10.27;69.76;101240.97;4972045;28;20058;-63
2021/04/21 00:23:07;;;;;;;48.15;31.30;;;;;;;10.22;69.80;101236.69;4981332;28;20058;-61
2021/04/21 00:25:34;;;;;;;45.10;30.35;;;;;;;10.22;69.27;101237.56;4976520;28;20057;-62
2021/04/21 00:28:04;;;;;;;44.10;30.88;;;;;;;10.27;69.30;101233.16;4978746;28;20050;-63
2021/04/21 00:30:31;;;;;;;49.13;30.92;;;;;;;10.30;68.80;101234.88;4976309;28;20126;-64
2021/04/21 00:33:00;;;;;;;38.80;30.02;;;;;;;10.27;68.96;101234.91;4981864;28;20420;-65
2021/04/21 00:35:30;;;;;;;41.53;29.33;;;;;;;10.25;69.62;101229.72;4980129;28;20059;-65
2021/04/21 00:37:59;;;;;;;43.78;30.73;;;;;;;10.22;69.81;101229.75;4989585;28;20515;-63
2021/04/21 00:40:39;;;;;;;44.17;30.42;;;;;;;10.16;69.41;101224.59;4976933;28;20058;-61
2021/04/21 00:43:15;;;;;;;43.33;30.30;;;;;;;10.05;69.96;101234.25;4969544;28;20047;-63
2021/04/21 00:45:44;;;;;;;45.13;31.30;;;;;;;9.95;69.91;101233.47;4972742;28;20405;-62
2021/04/21 00:48:21;;;;;;;49.78;31.58;;;;;;;9.85;70.08;101230.06;4973659;28;20104;-63
2021/04/21 00:50:55;;;;;;;42.15;32.05;;;;;;;9.95;70.48;101234.31;4990151;28;20137;-63
2021/04/21 00:53:31;;;;;;;49.13;31.98;;;;;;;9.97;70.41;101236.94;4987605;28;20431;-65
2021/04/21 00:56:03;;;;;;;41.45;30.20;;;;;;;10.00;69.88;101230.84;4972355;28;20058;-64
2021/04/21 00:58:44;;;;;;;44.40;31.45;;;;;;;9.84;70.60;101230.94;4974823;28;20049;-64
2021/04/21 01:01:11;;;;;;;42.95;30.90;;;;;;;9.80;70.57;101239.66;4979165;28;20142;-64
2021/04/21 01:03:38;;;;;;;42.60;31.73;;;;;;;9.78;70.75;101231.84;4972173;28;20050;-61
2021/04/21 01:06:08;;;;;;;47.60;31.20;;;;;;;9.76;70.82;101230.16;4972326;28;20050;-63
2021/04/21 01:08:39;;;;;;;41.75;31.05;;;;;;;9.78;71.09;101229.25;4971104;28;20051;-62
2021/04/21 01:11:10;;;;;;;44.60;33.13;;;;;;;9.79;70.62;101227.53;4980269;28;20046;-63
2021/04/21 01:13:41;;;;;;;43.75;31.40;;;;;;;9.77;71.09;101224.97;4975774;28;20050;-63
2021/04/21 01:16:08;;;;;;;44.40;30.33;;;;;;;9.79;70.87;101223.19;4975043;28;20057;-63
2021/04/21 01:18:36;;;;;;;44.42;30.85;;;;;;;9.78;70.61;101215.41;4972697;28;20059;-63
2021/04/21 01:21:05;;;;;;;41.65;31.58;;;;;;;9.71;71.01;101222.41;4973111;28;20074;-63
2021/04/21 01:24:00;;;;;;;45.78;31.25;;;;;;;9.64;71.30;101218.97;4977131;28;20050;-63
2021/04/21 01:26:42;;;;;;;41.78;31.20;;;;;;;9.56;70.63;101220.78;4974743;28;20074;-62
2021/04/21 01:29:12;;;;;;;47.92;32.13;;;;;;;9.51;71.34;101217.38;4971830;28;20420;-62
2021/04/21 01:31:39;;;;;;;41.83;30.50;;;;;;;9.50;71.36;101218.22;4971588;28;20085;-62
2021/04/21 01:34:10;;;;;;;43.15;30.38;;;;;;;9.56;71.21;101220.78;4969101;28;20055;-61
2021/04/21 01:36:37;;;;;;;43.67;31.23;;;;;;;9.55;71.11;101213.00;4979811;28;20097;-63
2021/04/21 01:39:04;;;;;;;44.17;31.95;;;;;;;9.55;71.56;101215.59;4972690;28;20128;-61
2021/04/21 01:41:35;;;;;;;45.00;31.00;;;;;;;9.34;72.30;101215.72;4973109;28;20058;-62
2021/04/21 01:44:04;;;;;;;44.72;31.63;;;;;;;9.28;71.66;101205.38;4977907;28;20110;-63
2021/04/21 01:46:36;;;;;;;44.13;30.45;;;;;;;9.31;71.93;101205.38;4972215;28;20047;-63
2021/04/21 01:49:19;;;;;;;46.88;31.77;;;;;;;9.36;71.86;101201.88;4970822;28;20512;-63
2021/04/21 01:51:46;;;;;;;44.92;31.13;;;;;;;9.39;72.03;101204.47;4974666;28;20510;-62
2021/04/21 01:54:15;;;;;;;45.25;31.27;;;;;;;9.36;71.69;101212.25;4983711;28;20579;-63
2021/04/21 01:56:45;;;;;;;42.15;30.45;;;;;;;9.28;71.97;101210.59;4981990;28;20055;-62
2021/04/21 01:59:20;;;;;;;48.08;33.20;;;;;;;9.22;72.55;101209.75;4973335;28;20425;-62
2021/04/21 02:01:53;;;;;;;46.53;31.77;;;;;;;9.12;72.32;101208.97;4983634;28;20487;-62
2021/04/21 02:04:37;;;;;;;50.03;32.67;;;;;;;9.02;73.39;101209.00;4983974;28;20149;-63
2021/04/21 02:07:19;;;;;;;53.03;33.80;;;;;;;8.98;74.24;101216.81;4983095;28;20047;-63
2021/04/21 02:10:09;;;;;;;53.13;33.13;;;;;;;8.97;74.02;101217.69;4981278;28;20050;-60
2021/04/21 02:12:53;;;;;;;48.50;32.88;;;;;;;8.96;73.93;101211.63;4978019;28;20388;-62
2021/04/21 02:15:28;;;;;;;48.67;33.97;;;;;;;8.86;73.67;101220.31;4973665;28;20059;-61
2021/04/21 02:18:01;;;;;;;48.70;33.20;;;;;;;8.79;74.13;101214.28;4971304;28;20050;-62
2021/04/21 02:20:33;;;;;;;48.85;33.28;;;;;;;8.78;74.52;101215.19;4971423;28;20061;-62
2021/04/21 02:23:04;;;;;;;50.38;34.58;;;;;;;8.73;74.39;101216.91;4986287;28;20057;-61
2021/04/21 02:26:09;;;;;;;49.45;34.08;;;;;;;8.66;74.54;101220.41;4975411;28;20078;-62
2021/04/21 02:28:46;;;;;;;51.83;35.17;;;;;;;8.64;74.85;101217.78;4951305;28;20105;-61
2021/04/21 02:31:22;;;;;;;49.88;34.00;;;;;;;8.57;74.88;101221.28;4973108;28;20055;-64
2021/04/21 02:33:55;;;;;;;50.20;34.42;;;;;;;8.52;75.95;101223.03;4981155;28;20050;-63
2021/04/21 02:36:29;;;;;;;51.33;33.55;;;;;;;8.47;76.28;101222.16;4994887;28;20050;-63
2021/04/21 02:39:00;;;;;;;53.65;34.85;;;;;;;8.46;76.27;101218.69;4984946;28;20587;-63
2021/04/21 02:41:34;;;;;;;51.20;35.95;;;;;;;8.44;76.11;101224.72;4972171;28;20424;-65
2021/04/21 02:44:10;;;;;;;51.65;34.00;;;;;;;8.44;75.91;101214.38;4980450;28;20131;-63
2021/04/21 02:46:41;;;;;;;53.92;34.42;;;;;;;8.45;76.49;101216.09;4982585;28;20499;-62
2021/04/21 02:49:22;;;;;;;50.50;34.13;;;;;;;8.38;76.63;101221.31;4979413;28;20054;-61
2021/04/21 02:51:54;;;;;;;51.40;34.08;;;;;;;8.37;76.82;101223.91;4989076;28;20100;-61
2021/04/21 02:54:28;;;;;;;46.97;33.15;;;;;;;8.29;76.21;101226.50;4975863;28;20090;-62
2021/04/21 02:56:59;;;;;;;48.70;32.63;;;;;;;8.29;76.30;101230.81;4980343;28;20047;-62
2021/04/21 02:59:31;;;;;;;46.22;31.23;;;;;;;8.32;76.46;101225.63;4987141;28;20073;-61
2021/04/21 03:02:04;;;;;;;47.70;31.48;;;;;;;8.36;76.62;101217.84;4989293;28;20046;-62
2021/04/21 03:04:39;;;;;;;49.00;33.60;;;;;;;8.40;76.27;101223.88;4983149;28;20054;-63
2021/04/21 03:07:15;;;;;;;46.35;31.65;;;;;;;8.43;76.26;101220.44;4981151;28;20122;-66
2021/04/21 03:09:48;;;;;;;44.33;31.60;;;;;;;8.44;76.28;101223.03;4976475;28;20203;-61
2021/04/21 03:12:18;;;;;;;47.13;32.78;;;;;;;8.47;75.90;101222.16;4982463;28;20110;-63
2021/04/21 03:14:48;;;;;;;50.70;31.67;;;;;;;8.50;75.96;101219.59;4974970;28;20062;-63
2021/04/21 03:17:15;;;;;;;46.15;30.52;;;;;;;8.50;75.95;101211.81;4979214;28;20043;-63
2021/04/21 03:19:49;;;;;;;49.72;31.92;;;;;;;8.48;75.89;101223.91;4989713;28;20494;-63
2021/04/21 03:22:17;;;;;;;48.15;32.47;;;;;;;8.48;76.03;101226.50;4974756;28;20508;-59
2021/04/21 03:24:51;;;;;;;44.28;30.95;;;;;;;8.45;76.48;101226.47;4977137;28;20047;-63
2021/04/21 03:27:23;;;;;;;44.05;28.77;;;;;;;8.47;76.95;101227.31;4981014;28;20046;-63
2021/04/21 03:29:52;;;;;;;44.97;30.77;;;;;;;8.52;76.58;101220.44;4976181;28;20098;-63
2021/04/21 03:32:22;;;;;;;45.03;31.50;;;;;;;8.56;76.54;101219.56;4970838;28;20065;-61
2021/04/21 03:34:51;;;;;;;44.55;31.63;;;;;;;8.59;76.15;101213.50;4975648;28;20058;-63
2021/04/21 03:37:25;;;;;;;50.22;31.10;;;;;;;8.60;76.01;101223.00;4974172;28;20102;-62
2021/04/21 03:39:52;;;;;;;44.13;29.88;;;;;;;8.59;75.98;101219.56;4965522;28;20051;-63
2021/04/21 03:42:18;;;;;;;55.33;32.30;;;;;;;8.61;75.85;101214.34;4977018;28;20467;-62
2021/04/21 03:44:45;;;;;;;49.33;30.25;;;;;;;8.57;76.76;101220.44;4969113;28;20142;-63
2021/04/21 03:47:11;;;;;;;44.75;30.70;;;;;;;8.57;76.90;101217.84;4964853;28;20047;-62
2021/04/21 03:49:38;;;;;;;46.72;32.00;;;;;;;8.62;75.88;101214.38;4968038;28;20094;-63
2021/04/21 03:52:06;;;;;;;45.47;29.85;;;;;;;8.64;75.65;101215.19;4979128;28;20046;-62
2021/04/21 03:54:34;;;;;;;46.42;31.02;;;;;;;8.63;75.50;101215.22;4969334;28;20051;-63
2021/04/21 03:57:03;;;;;;;46.30;30.33;;;;;;;8.56;76.17;101222.16;4970154;28;20046;-63
2021/04/21 03:59:31;;;;;;;43.90;31.55;;;;;;;8.51;76.19;101208.34;4970338;28;20054;-60
2021/04/21 04:02:04;;;;;;;42.10;30.17;;;;;;;8.51;75.66;101211.78;4963554;28;20043;-61
2021/04/21 04:04:31;;;;;;;48.55;29.42;;;;;;;8.49;76.36;101217.84;4969970;28;20053;-63
2021/04/21 04:07:04;;;;;;;47.92;30.63;;;;;;;8.43;76.05;101218.69;4975552;28;20501;-62
2021/04/21 04:09:34;;;;;;;50.05;30.63;;;;;;;8.33;76.27;101228.25;4975810;28;20042;-61
2021/04/21 04:12:04;;;;;;;45.40;30.60;;;;;;;8.28;76.92;101223.94;4975412;28;20050;-64
2021/04/21 04:14:32;;;;;;;45.25;30.38;;;;;;;8.24;76.57;101228.22;4975591;28;20087;-63
2021/04/21 04:17:00;;;;;;;48.72;31.40;;;;;;;8.19;76.86;101222.22;4979473;28;20129;-63
2021/04/21 04:19:27;;;;;;;48.10;31.02;;;;;;;8.18;76.69;101223.94;4975032;28;20046;-62
2021/04/21 04:21:56;;;;;;;43.80;29.85;;;;;;;8.17;77.03;101222.22;4980756;28;20058;-63
2021/04/21 04:24:25;;;;;;;49.40;31.27;;;;;;;8.15;77.09;101221.34;4977588;28;20101;-62
2021/04/21 04:26:54;;;;;;;45.60;30.77;;;;;;;8.16;77.67;101224.78;4980436;28;20388;-62
2021/04/21 04:29:21;;;;;;;46.40;30.70;;;;;;;8.25;77.27;101223.06;4981803;28;20051;-60
2021/04/21 04:31:49;;;;;;;45.80;30.70;;;;;;;8.29;77.25;101226.50;4978070;28;20138;-63
2021/04/21 04:34:18;;;;;;;48.38;31.15;;;;;;;8.35;77.06;101233.41;4976805;28;20504;-63
2021/04/21 04:36:44;;;;;;;43.80;30.38;;;;;;;8.37;76.90;101229.94;4981796;28;20069;-63
2021/04/21 04:39:10;;;;;;;45.40;30.63;;;;;;;8.36;76.34;101233.41;4980650;28;20050;-63
2021/04/21 04:41:38;;;;;;;49.25;30.95;;;;;;;8.33;76.82;101225.66;4979226;28;20097;-63
2021/04/21 04:44:06;;;;;;;49.30;32.85;;;;;;;8.29;76.92;101230.81;4976868;28;20077;-65
2021/04/21 04:46:37;;;;;;;45.83;30.98;;;;;;;8.25;76.58;101235.16;4979012;28;20058;-64
2021/04/21 04:49:08;;;;;;;48.28;30.73;;;;;;;8.23;77.21;101232.56;4973086;28;20097;-63
2021/04/21 04:51:36;;;;;;;44.67;28.20;;;;;;;8.28;77.31;101239.47;4975252;28;20420;-62
2021/04/21 04:54:04;;;;;;;48.17;31.45;;;;;;;8.28;76.89;101240.34;4975460;28;20105;-63
2021/04/21 04:56:31;;;;;;;47.25;29.73;;;;;;;8.29;76.87;101242.06;4979745;28;20062;-62
2021/04/21 04:58:58;;;;;;;44.72;30.73;;;;;;;8.30;76.94;101241.19;4968676;28;20047;-62
2021/04/21 05:01:25;;;;;;;49.88;30.67;;;;;;;8.24;76.83;101255.03;4974177;28;20042;-62
2021/04/21 05:03:54;;;;;;;46.90;31.38;;;;;;;8.30;76.52;101250.69;4978373;28;20154;-63
2021/04/21 05:06:32;;;;;;;52.35;32.08;;;;;;;8.31;76.50;101252.41;4973000;28;20085;-64
2021/04/21 05:09:03;;;;;;;49.35;30.33;;;;;;;8.25;76.83;101255.88;4972601;28;20081;-62
2021/04/21 05:11:30;;;;;;;43.40;29.77;;;;;;;8.28;77.16;101255.03;4976982;28;20393;-62
2021/04/21 05:13:58;;;;;;;46.05;30.77;;;;;;;8.28;76.74;101253.28;4974957;28;20046;-62
2021/04/21 05:16:58;;;;;;;43.20;29.38;;;;;;;8.29;76.99;101259.31;4980602;28;20125;-63
2021/04/21 05:20:04;;;;;;;45.70;29.10;;;;;;;8.33;77.09;101264.53;4930384;28;20679;-63
2021/04/21 05:22:47;;;;;;;;;;;;;;;8.40;76.67;101265.34;4976725;28;20046;-60
2021/04/21 05:26:02;;;;;;;42.42;29.92;;;;;;;8.44;76.25;101269.69;4975351;28;19929;-63
2021/04/21 05:29:08;;;;;;;42.35;28.85;;;;;;;8.48;76.12;101274.03;4970952;28;20828;-62
2021/04/21 05:32:25;;;;;;;44.28;29.83;;;;;;;8.54;76.48;101271.44;4976555;28;20050;-64
2021/04/21 05:35:50;;;;;;;49.88;29.73;;;;;;;8.68;75.18;101271.38;4976029;28;20117;-60
2021/04/21 05:39:01;;;;;;;41.42;28.08;;;;;;;8.77;75.54;101275.69;4978041;28;20056;-63
2021/04/21 05:42:12;;;;;;;43.20;27.48;;;;;;;8.91;75.38;101270.47;4970111;28;20428;-62
2021/04/21 05:45:12;;;;;;;40.75;26.98;;;;;;;9.09;74.11;101274.69;4945421;29;20092;-63
2021/04/21 05:48:02;;;;;;;39.20;27.05;;;;;;;9.14;74.29;101277.25;4975373;28;20121;-62
2021/04/21 05:51:00;;;;;;;42.65;27.55;;;;;;;9.12;73.94;101276.44;4971190;28;20050;-62
2021/04/21 05:53:52;;;;;;;43.33;28.50;;;;;;;9.14;73.59;101274.66;4975641;28;20051;-63
2021/04/21 05:56:56;;;;;;;44.72;26.58;;;;;;;9.11;74.22;101280.75;4981772;28;20078;-63
2021/04/21 05:59:59;;;;;;;50.60;27.17;;;;;;;9.10;74.09;101283.34;4978089;28;20062;-63
2021/04/21 06:02:28;;;;;;;45.90;26.90;;;;;;;9.14;74.37;101285.94;4970736;28;20054;-63
2021/04/21 06:05:04;;;;;;;47.28;28.17;;;;;;;9.14;74.42;101282.47;4978551;28;20057;-61
2021/04/21 06:07:31;;;;;;;42.92;28.20;;;;;;;9.15;74.66;101279.88;4973021;28;20042;-62
2021/04/21 06:09:58;;;;;;;38.15;26.42;;;;;;;9.11;74.73;101285.94;4975037;28;20048;-62
2021/04/21 06:12:24;;;;;;;43.38;27.83;;;;;;;9.09;75.15;101286.81;4985676;28;20046;-62
2021/04/21 06:14:52;;;;;;;47.17;29.25;;;;;;;9.13;75.20;101283.34;4982961;28;20852;-60
2021/04/21 06:17:23;;;;;;;42.10;26.92;;;;;;;9.15;75.14;101281.59;4986691;28;20149;-63
2021/04/21 06:19:49;;;;;;;36.53;25.75;;;;;;;9.15;74.58;101289.38;4980863;28;20112;-61
2021/04/21 06:22:26;;;;;;;43.30;27.30;;;;;;;9.20;74.34;101284.16;4981003;28;20055;-65
2021/04/21 06:25:15;;;;;;;43.40;26.27;;;;;;;9.18;74.11;101292.81;4975633;28;20046;-64
2021/04/21 06:27:42;;;;;;;40.33;26.42;;;;;;;9.24;74.38;101293.69;4975944;28;20055;-64
2021/04/21 06:33:31;;;;;;;40.75;26.50;;;;;;;9.27;73.70;101307.50;4978082;28;20055;-61
2021/04/21 06:35:57;;;;;;;37.78;26.63;;;;;;;9.31;73.90;101303.16;4976975;28;20055;-64
2021/04/21 06:38:28;;;;;;;40.17;26.58;;;;;;;9.32;74.75;101304.88;4979353;28;20050;-62
2021/04/21 06:40:55;;;;;;;38.47;26.83;;;;;;;9.43;74.66;101302.25;4979568;28;20077;-65
2021/04/21 06:43:24;;;;;;;42.25;27.50;;;;;;;9.45;74.53;101303.06;4977544;28;20058;-63
2021/04/21 06:45:51;;;;;;;38.13;26.02;;;;;;;9.57;73.74;101309.97;4981114;28;20102;-63
2021/04/21 06:48:26;;;;;;;38.47;25.45;;;;;;;9.62;73.55;101298.66;4975809;28;20043;-61
2021/04/21 06:50:52;;;;;;;42.38;27.30;;;;;;;9.72;73.02;101301.22;4980182;28;20054;-63
2021/04/21 06:53:27;;;;;;;45.75;27.80;;;;;;;9.74;72.50;101302.91;4982509;28;20553;-63
2021/04/21 06:55:56;;;;;;;;;;;;;;;9.72;72.34;101306.41;4980235;28;20046;-64
2021/04/21 06:58:22;;;;;;;45.05;25.17;;;;;;;9.70;72.35;101303.78;4982900;28;19991;-62
2021/04/21 07:00:48;;;;;;;37.70;23.85;;;;;;;9.73;72.33;101308.97;4979037;28;20046;-63
2021/04/21 07:03:17;;;;;;;38.97;24.50;;;;;;;9.78;72.68;101314.16;4981779;28;20089;-63
2021/04/21 07:05:43;;;;;;;43.90;25.58;;;;;;;9.89;72.63;101317.53;4980633;28;20055;-61
2021/04/21 07:08:11;;;;;;;35.97;25.30;;;;;;;9.95;72.57;101314.03;4980223;28;20047;-64
2021/04/21 07:10:42;;;;;;;35.45;24.10;;;;;;;10.10;72.43;101319.09;4982556;28;20047;-64
2021/04/21 07:13:13;;;;;;;36.42;25.30;;;;;;;10.16;71.83;101315.59;4982854;28;20065;-62
2021/04/21 07:15:40;;;;;;;40.72;24.67;;;;;;;10.26;71.61;101312.03;4970580;28;20098;-64
2021/04/21 07:18:10;;;;;;;37.38;24.02;;;;;;;10.31;71.52;101318.94;4983104;28;20082;-63
2021/04/21 07:20:36;;;;;;;35.63;24.85;;;;;;;10.29;71.74;101313.75;4986251;28;20054;-63
2021/04/21 07:23:03;;;;;;;45.95;24.02;;;;;;;10.26;71.45;101316.38;4978877;28;20059;-64
2021/04/21 07:25:29;;;;;;;38.65;23.77;;;;;;;10.25;71.47;101317.25;4983125;28;20046;-64
2021/04/21 07:27:56;;;;;;;36.33;24.50;;;;;;;10.33;72.30;101314.59;4984076;28;20047;-62
2021/04/21 07:30:28;;;;;;;35.42;23.30;;;;;;;10.36;72.00;101314.56;4979481;28;20069;-63
2021/04/21 07:32:55;;;;;;;37.40;23.40;;;;;;;10.47;71.60;101317.97;4973987;28;20054;-63
2021/04/21 07:35:23;;;;;;;41.35;25.55;;;;;;;10.55;71.09;101321.34;4978070;28;20051;-64
2021/04/21 07:37:50;;;;;;;37.90;22.95;;;;;;;10.70;70.69;101317.72;4983075;28;20129;-64
2021/04/21 07:40:25;;;;;;;34.35;23.98;;;;;;;10.87;70.30;101320.16;4982637;28;20567;-62
2021/04/21 07:42:51;;;;;;;;;;;;;;;11.03;69.62;101322.56;4975741;28;20050;-64
2021/04/21 07:45:20;;;;;;;32.78;23.30;;;;;;;11.17;68.66;101319.81;4980930;28;19922;-65
2021/04/21 07:47:47;;;;;;;38.30;23.30;;;;;;;11.29;67.90;101324.84;4982843;28;20150;-62
2021/04/21 07:50:14;;;;;;;33.40;22.42;;;;;;;11.41;68.45;101323.84;4979933;28;20407;-63
2021/04/21 07:52:40;;;;;;;31.70;23.58;;;;;;;11.55;67.70;101328.00;4979247;28;20055;-64
2021/04/21 07:55:09;;;;;;;35.05;22.77;;;;;;;11.52;67.62;101323.69;4980193;28;20508;-64
2021/04/21 07:57:36;;;;;;;35.05;23.35;;;;;;;11.49;68.21;101326.34;4978645;28;20073;-66
2021/04/21 08:00:08;;;;;;;33.58;21.83;;;;;;;11.57;67.30;101331.44;4978539;28;20130;-64
2021/04/21 08:02:35;;;;;;;33.80;21.98;;;;;;;11.62;67.40;101332.25;4973838;28;20098;-65
2021/04/21 08:05:07;;;;;;;30.95;21.42;;;;;;;11.75;67.52;101331.19;4978644;28;20054;-62
2021/04/21 08:07:38;;;;;;;29.25;21.83;;;;;;;11.95;66.78;101337.84;4980933;28;20047;-63
2021/04/21 08:10:09;;;;;;;37.05;21.73;;;;;;;11.96;67.59;101335.22;4979507;28;20114;-62
2021/04/21 08:12:37;;;;;;;29.20;20.00;;;;;;;11.94;65.62;101331.78;4981793;28;20069;-62
2021/04/21 08:15:05;;;;;;;27.67;20.40;;;;;;;11.86;65.87;101338.88;4980773;28;20106;-63
2021/04/21 08:17:49;;;;;;;28.92;19.23;;;;;;;11.87;65.50;101344.94;4980285;28;20061;-63
2021/04/21 08:20:23;;;;;;;33.70;20.73;;;;;;;11.91;64.94;101341.41;4978073;28;20046;-63
2021/04/21 08:22:53;;;;;;;26.77;19.10;;;;;;;11.84;64.13;101345.84;4974522;28;20051;-63
2021/04/21 08:25:19;;;;;;;25.58;17.75;;;;;;;11.94;64.12;101347.44;4978279;28;20065;-63
2021/04/21 08:27:45;;;;;;;28.73;17.90;;;;;;;12.05;63.24;101347.28;4978985;28;20093;-63
2021/04/21 08:30:13;;;;;;;23.55;16.95;;;;;;;12.05;62.40;101349.88;4980643;28;20496;-64
2021/04/21 08:32:39;;;;;;;25.15;17.15;;;;;;;12.17;62.55;101347.97;4976873;28;20054;-63
2021/04/21 08:35:06;;;;;;;22.30;15.57;;;;;;;12.25;60.38;101346.97;4977272;28;20052;-63
2021/04/21 08:37:33;;;;;;;24.75;16.15;;;;;;;12.31;60.14;101351.22;4976279;28;20058;-63
2021/04/21 08:39:59;;;;;;;22.45;16.42;;;;;;;12.36;60.60;101353.75;4980364;28;20042;-62
2021/04/21 08:42:28;;;;;;;22.30;15.75;;;;;;;12.46;60.69;101351.84;4979458;28;20472;-66
2021/04/21 08:44:55;;;;;;;21.42;15.77;;;;;;;12.64;60.08;101346.28;4980438;28;20431;-65
2021/04/21 08:47:24;;;;;;;26.35;16.23;;;;;;;12.63;59.32;101355.00;4977852;28;20449;-62
2021/04/21 08:49:54;;;;;;;29.25;14.00;;;;;;;12.62;58.16;101355.94;4974271;28;20053;-64
2021/04/21 08:52:22;;;;;;;27.85;16.45;;;;;;;12.53;58.52;101356.06;4985008;28;20062;-60
2021/04/21 08:54:53;;;;;;;23.70;14.55;;;;;;;12.59;58.11;101353.38;4975579;28;20046;-63
2021/04/21 08:57:19;;;;;;;20.67;14.02;;;;;;;12.68;58.25;101349.72;4975782;28;20492;-63
2021/04/21 08:59:46;;;;;;;22.42;15.68;;;;;;;12.88;58.05;101360.66;4965940;28;20407;-63
2021/04/21 09:02:15;;;;;;;22.60;12.35;;;;;;;13.07;61.53;101365.53;4964430;28;20062;-62
2021/04/21 09:04:41;;;;;;;23.98;14.07;;;;;;;13.45;58.15;101355.22;4961799;28;20061;-63
2021/04/21 09:07:07;;;;;;;22.42;14.35;;;;;;;13.87;58.21;101351.69;4964965;28;20528;-63
2021/04/21 09:09:34;;;;;;;24.70;11.52;;;;;;;14.06;52.06;101358.22;4965478;28;20051;-62
2021/04/21 09:12:02;;;;;;;21.42;10.07;;;;;;;14.14;51.79;101358.00;4976662;28;20054;-63
2021/04/21 09:14:28;;;;;;;19.00;10.60;;;;;;;14.00;47.02;101363.56;4978167;28;20480;-63
2021/04/21 09:16:54;;;;;;;16.25;10.27;;;;;;;14.04;48.69;101362.63;4975292;28;20051;-63
2021/04/21 09:19:20;;;;;;;17.80;10.23;;;;;;;14.23;49.12;101363.00;4963643;28;20139;-65
2021/04/21 09:21:46;;;;;;;18.15;10.73;;;;;;;14.42;48.69;101362.59;4960216;28;22414;-64
2021/04/21 09:24:25;;;;;;;15.48;10.05;;;;;;;14.51;47.87;101364.97;4964866;28;20054;-65
2021/04/21 09:26:51;;;;;;;17.00;10.77;;;;;;;14.46;47.79;101369.44;4960127;28;20563;-63
2021/04/21 09:29:25;;;;;;;21.58;10.75;;;;;;;14.60;48.02;101366.47;4962853;28;20055;-63
2021/04/21 09:32:05;;;;;;;18.75;11.93;;;;;;;14.58;48.38;101368.25;4959617;28;20134;-63
2021/04/21 09:37:55;;;;;;;16.67;10.95;;;;;;;14.68;48.98;101368.94;4960274;28;20520;-62
2021/04/21 09:40:33;;;;;;;15.32;10.10;;;;;;;14.71;47.34;101366.25;4964181;28;20047;-63
2021/04/21 09:46:23;;;;;;;18.45;10.38;;;;;;;14.85;46.06;101377.19;4963023;28;20113;-62
2021/04/21 09:48:49;;;;;;;21.00;10.48;;;;;;;14.93;47.13;101369.97;4967839;28;20047;-62
2021/04/21 09:51:17;;;;;;;22.25;9.88;;;;;;;14.90;46.79;101371.81;4970855;28;20138;-64
2021/04/21 09:53:44;;;;;;;14.57;9.70;;;;;;;14.79;47.21;101369.50;4964032;28;20727;-62
2021/04/21 09:56:13;;;;;;;15.77;10.45;;;;;;;14.80;47.05;101372.97;4965503;28;20072;-61
2021/04/21 09:58:41;;;;;;;18.25;10.73;;;;;;;14.70;46.80;101373.22;4965743;28;20501;-61
2021/04/21 10:01:32;;;;;;;22.52;9.70;;;;;;;14.82;46.36;101372.06;4964321;28;20046;-61
2021/04/21 10:04:13;;;;;;;15.57;9.07;;;;;;;14.90;46.86;101383.19;4962189;28;20061;-65
2021/04/21 10:06:42;;;;;;;20.77;9.95;;;;;;;15.01;43.74;101374.16;4980394;28;20063;-61
2021/04/21 10:09:23;;;;;;;12.57;8.05;;;;;;;14.82;43.13;101377.28;4964155;28;20113;-63
2021/04/21 10:11:49;;;;;;;16.35;8.48;;;;;;;14.82;42.93;101377.28;4965260;28;20050;-62
2021/04/21 10:14:23;;;;;;;15.95;8.88;;;;;;;14.95;42.99;101372.56;4964012;28;20055;-64
2021/04/21 10:16:50;;;;;;;13.52;7.93;;;;;;;14.97;42.81;101369.91;4963135;28;20047;-65
2021/04/21 10:19:17;;;;;;;20.00;8.77;;;;;;;14.90;42.47;101370.09;4960451;28;20501;-64
2021/04/21 10:21:43;;;;;;;14.68;8.38;;;;;;;14.92;42.85;101377.88;4962061;28;20050;-65
2021/04/21 10:24:10;;;;;;;38.45;22.75;;;;;;;14.93;43.48;101371.75;4961593;28;20054;-63
2021/04/21 10:26:36;;;;;;;21.35;12.43;;;;;;;15.03;43.40;101380.19;4958178;28;20046;-61
2021/04/21 10:29:02;;;;;;;19.83;8.70;;;;;;;15.17;43.73;101378.06;4961502;28;20231;-66
2021/04/21 10:31:29;;;;;;;19.35;8.77;;;;;;;15.10;42.29;101379.16;4962764;28;20202;-65
2021/04/21 10:34:33;;;;;;;14.20;8.57;;;;;;;15.27;43.82;101378.69;4959116;28;20050;-62
2021/04/21 10:37:02;;;;;;;14.65;8.80;;;;;;;15.31;42.94;101376.81;4961356;28;20046;-63
2021/04/21 10:39:33;;;;;;;13.52;7.93;;;;;;;15.23;43.73;101377.88;4965122;28;20065;-64
2021/04/21 10:42:06;;;;;;;17.45;8.70;;;;;;;15.22;42.05;101378.78;4961183;28;20054;-65
2021/04/21 10:44:32;;;;;;;18.48;8.98;;;;;;;15.39;43.21;101378.31;4962817;28;20062;-65
2021/04/21 10:47:08;;;;;;;15.98;9.07;;;;;;;15.35;43.05;101383.69;4962912;28;20603;-65
2021/04/21 10:49:54;;;;;;;19.63;8.35;;;;;;;15.55;43.34;101372.63;4962020;28;20807;-64
2021/04/21 10:52:24;;;;;;;13.18;7.65;;;;;;;15.61;40.76;101375.06;4960925;28;20051;-63
2021/04/21 10:54:53;;;;;;;13.63;8.35;;;;;;;15.69;40.05;101377.44;4966355;28;20054;-65
2021/04/21 10:57:31;;;;;;;15.43;8.05;;;;;;;15.57;40.39;101380.44;4964115;28;21725;-62
2021/04/21 11:00:12;;;;;;;32.10;18.23;;;;;;;15.32;41.32;101382.00;4958264;28;20051;-63
2021/04/21 11:02:51;;;;;;;13.15;8.63;;;;;;;15.26;40.74;101382.19;4955925;28;20055;-63
2021/04/21 11:05:20;;;;;;;17.13;9.10;;;;;;;15.17;42.21;101382.47;4957765;28;20050;-63
2021/04/21 11:08:42;;;;;;;20.52;8.85;;;;;;;15.25;41.24;101375.25;4959995;28;20849;-65
2021/04/21 11:11:14;;;;;;;12.85;9.40;;;;;;;15.36;41.82;101381.03;4952510;28;20059;-61
2021/04/21 11:13:46;;;;;;;16.15;7.95;;;;;;;15.44;38.77;101365.06;4964318;28;20061;-65
2021/04/21 11:16:35;;;;;;;15.45;8.77;;;;;;;15.55;38.23;101378.72;4964449;28;20097;-62
2021/04/21 11:19:24;;;;;;;16.98;8.50;;;;;;;15.64;37.50;101372.34;4965963;28;20042;-64
2021/04/21 11:22:30;;;;;;;16.77;9.10;;;;;;;15.75;39.72;101374.63;4974423;28;20058;-64
2021/04/21 11:25:30;;;;;;;13.85;7.68;;;;;;;15.91;36.80;101372.44;4966187;28;20051;-65
2021/04/21 11:27:58;;;;;;;17.70;9.18;;;;;;;15.95;37.02;101376.69;4962450;28;20042;-63
2021/04/21 11:31:00;;;;;;;15.40;8.10;;;;;;;15.99;37.63;101385.31;4960417;28;20508;-62
2021/04/21 11:33:53;;;;;;;14.68;8.40;;;;;;;15.95;37.26;101366.19;4966935;28;20086;-65
2021/04/21 11:36:52;;;;;;;16.40;9.85;;;;;;;15.68;38.99;101368.72;4970137;28;20051;-63
2021/04/21 11:39:47;;;;;;;12.95;9.07;;;;;;;15.78;39.30;101374.53;4973184;28;20059;-64
2021/04/21 11:42:19;;;;;;;17.35;10.40;;;;;;;15.67;38.83;101368.75;4977665;28;20778;-66
2021/04/21 11:44:56;;;;;;;13.95;9.05;;;;;;;15.82;39.97;101367.44;4980073;28;20125;-64
2021/04/21 12:06:57;;;;;;;15.70;9.70;;;;;;;15.78;41.91;101350.94;4986722;28;20050;-67
2021/04/21 12:09:34;;;;;;;16.42;10.05;;;;;;;16.01;40.31;101350.22;4996930;28;20042;-67
2021/04/21 12:12:00;;;;;;;15.10;9.13;;;;;;;16.19;40.95;101354.94;5006382;28;20050;-65